Time;durP1;ratioP1;P1;durP2;ratioP2;P2;SDS_P1;SDS_P2;PMS_P1;PMS_P2;Temp;Humidity;BMP_temperature;BMP_pressure;BME280_temperature;BME280_humidity;BME280_pressure;Samples;Min_cycle;Max_cycle;Signal;HPM_P1;HPM_P2
2023/07/08 00:00:17;;;;;;;;;;;;;;;;;;5014881;28;19968;-61
2023/07/08 00:02:43;;;;;;;;;;;;;;;;;;5030146;28;20007;-61
2023/07/08 00:05:09;;;;;;;;;;;;;;;;;;5031547;28;19991;-61
2023/07/08 00:07:35;;;;;;;;;;;;;;;;;;5031098;28;19929;-62
2023/07/08 00:10:01;;;;;;;;;;;;;;;;;;5032297;28;20472;-61
2023/07/08 00:12:27;;;;;;;;;;;;;;;;;;5028969;28;20440;-61
2023/07/08 00:14:53;;;;;;;;;;;;;;;;;;5030347;28;19984;-61
2023/07/08 00:17:19;;;;;;;;;;;;;;;;;;5030367;28;19925;-61
2023/07/08 00:19:45;;;;;;;;;;;;;;;;;;5031381;28;19929;-61
2023/07/08 00:22:11;;;;;;;;;;;;;;;;;;5029498;28;19921;-62
2023/07/08 00:24:36;;;;;;;;;;;;;;;;;;5028871;28;20669;-62
2023/07/08 00:27:02;;;;;;;;;;;;;;;;;;5022058;28;20387;-62
2023/07/08 00:29:28;;;;;;;;;;;;;;;;;;5027832;28;19932;-61
2023/07/08 00:31:54;;;;;;;;;;;;;;;;;;5031032;28;19996;-61
2023/07/08 00:34:20;;;;;;;;;;;;;;;;;;5032194;28;20694;-61
2023/07/08 00:36:46;;;;;;;;;;;;;;;;;;5030374;28;19929;-61
2023/07/08 00:39:12;;;;;;;;;;;;;;;;;;5027759;28;19928;-61
2023/07/08 00:41:41;;;;;;;;;;;;;;;;;;5031979;28;19928;-61
2023/07/08 00:44:07;;;;;;;;;;;;;;;;;;5032486;28;19952;-61
2023/07/08 00:46:33;;;;;;;;;;;;;;;;;;5031536;28;20374;-61
2023/07/08 00:48:59;;;;;;;;;;;;;;;;;;5026350;28;19932;-61
2023/07/08 00:51:25;;;;;;;;;;;;;;;;;;5022297;28;19921;-61
2023/07/08 00:53:51;;;;;;;;;;;;;;;;;;5031866;28;19925;-61
2023/07/08 00:56:16;;;;;;;;;;;;;;;;;;5031739;28;20020;-62
2023/07/08 00:58:42;;;;;;;;;;;;;;;;;;5029544;28;19925;-61
2023/07/08 01:01:08;;;;;;;;;;;;;;;;;;5026653;28;19929;-62
2023/07/08 01:03:34;;;;;;;;;;;;;;;;;;5030722;28;19928;-62
2023/07/08 01:06:00;;;;;;;;;;;;;;;;;;5028828;28;19960;-61
2023/07/08 01:08:28;;;;;;;;;;;;;;;;;;5026766;28;20400;-61
2023/07/08 01:10:54;;;;;;;;;;;;;;;;;;5030061;28;19961;-62
2023/07/08 01:13:20;;;;;;;;;;;;;;;;;;5030519;28;19925;-61
2023/07/08 01:15:46;;;;;;;;;;;;;;;;;;5029388;28;20297;-61
2023/07/08 01:18:12;;;;;;;;;;;;;;;;;;5029442;28;19933;-61
2023/07/08 01:20:38;;;;;;;;;;;;;;;;;;5030387;28;20281;-61
2023/07/08 01:23:04;;;;;;;;;;;;;;;;;;5028133;28;19921;-62
2023/07/08 01:25:30;;;;;;;;;;;;;;;;;;5030408;28;19931;-62
2023/07/08 01:27:56;;;;;;;;;;;;;;;;;;5027985;28;19925;-62
2023/07/08 01:30:22;;;;;;;;;;;;;;;;;;5025422;28;21163;-62
2023/07/08 01:32:48;;;;;;;;;;;;;;;;;;5029315;28;19921;-61
2023/07/08 01:35:14;;;;;;;;;;;;;;;;;;5029352;28;19925;-61
2023/07/08 01:37:40;;;;;;;;;;;;;;;;;;5030367;28;20402;-61
2023/07/08 01:40:06;;;;;;;;;;;;;;;;;;5029484;28;19921;-61
2023/07/08 01:42:32;;;;;;;;;;;;;;;;;;5029530;28;19948;-61
2023/07/08 01:44:57;;;;;;;;;;;;;;;;;;5028878;28;19976;-61
2023/07/08 01:47:23;;;;;;;;;;;;;;;;;;5029135;28;20013;-61
2023/07/08 01:49:49;;;;;;;;;;;;;;;;;;5030146;28;20378;-61
2023/07/08 01:52:15;;;;;;;;;;;;;;;;;;5022343;28;19921;-61
2023/07/08 01:54:41;;;;;;;;;;;;;;;;;;5029768;28;19924;-61
2023/07/08 01:57:07;;;;;;;;;;;;;;;;;;5029962;28;20359;-61
2023/07/08 01:59:33;;;;;;;;;;;;;;;;;;5031650;28;19921;-61
2023/07/08 02:01:59;;;;;;;;;;;;;;;;;;5031627;28;19987;-61
2023/07/08 02:04:25;;;;;;;;;;;;;;;;;;5031588;28;19929;-61
2023/07/08 02:06:50;;;;;;;;;;;;;;;;;;5031547;28;19921;-61
2023/07/08 02:09:16;;;;;;;;;;;;;;;;;;5031870;28;20027;-61
2023/07/08 02:11:42;;;;;;;;;;;;;;;;;;5029131;28;19925;-61
2023/07/08 02:14:08;;;;;;;;;;;;;;;;;;5031822;28;19929;-61
2023/07/08 02:16:34;;;;;;;;;;;;;;;;;;5031345;28;19921;-61
2023/07/08 02:19:00;;;;;;;;;;;;;;;;;;5029806;28;19925;-61
2023/07/08 02:21:26;;;;;;;;;;;;;;;;;;5030747;28;19929;-61
2023/07/08 02:23:52;;;;;;;;;;;;;;;;;;5028871;28;19925;-61
2023/07/08 02:26:18;;;;;;;;;;;;;;;;;;5032375;28;19921;-61
2023/07/08 02:28:43;;;;;;;;;;;;;;;;;;5032432;28;19932;-61
2023/07/08 02:31:09;;;;;;;;;;;;;;;;;;5032822;28;19961;-61
2023/07/08 02:33:35;;;;;;;;;;;;;;;;;;5032770;28;20444;-61
2023/07/08 02:36:01;;;;;;;;;;;;;;;;;;5032196;28;19925;-62
2023/07/08 02:38:27;;;;;;;;;;;;;;;;;;5031092;28;20256;-61
2023/07/08 02:40:53;;;;;;;;;;;;;;;;;;5029161;28;19921;-61
2023/07/08 02:43:19;;;;;;;;;;;;;;;;;;5033744;28;19933;-61
2023/07/08 02:45:45;;;;;;;;;;;;;;;;;;5030230;28;19925;-61
2023/07/08 02:48:11;;;;;;;;;;;;;;;;;;5032391;28;20287;-61
2023/07/08 02:50:37;;;;;;;;;;;;;;;;;;5032661;28;19925;-62
2023/07/08 02:53:03;;;;;;;;;;;;;;;;;;5032386;28;19933;-62
2023/07/08 02:55:28;;;;;;;;;;;;;;;;;;5032421;28;20012;-61
2023/07/08 02:57:54;;;;;;;;;;;;;;;;;;5031534;28;19921;-62
2023/07/08 03:00:20;;;;;;;;;;;;;;;;;;5031971;28;20343;-62
2023/07/08 03:02:46;;;;;;;;;;;;;;;;;;5032135;28;19932;-61
2023/07/08 03:05:12;;;;;;;;;;;;;;;;;;5031303;28;19929;-62
2023/07/08 03:07:38;;;;;;;;;;;;;;;;;;5031972;28;19975;-62
2023/07/08 03:10:04;;;;;;;;;;;;;;;;;;5029884;28;19995;-61
2023/07/08 03:12:30;;;;;;;;;;;;;;;;;;5028953;28;19924;-61
2023/07/08 03:14:56;;;;;;;;;;;;;;;;;;5030690;28;19933;-61
2023/07/08 03:17:22;;;;;;;;;;;;;;;;;;5029048;28;19921;-62
2023/07/08 03:19:48;;;;;;;;;;;;;;;;;;5030304;28;19920;-61
2023/07/08 03:22:13;;;;;;;;;;;;;;;;;;5030456;28;19929;-61
2023/07/08 03:24:45;;;;;;;;;;;;;;;;;;5030292;28;19932;-61
2023/07/08 03:27:11;;;;;;;;;;;;;;;;;;5028180;28;19964;-62
2023/07/08 03:29:37;;;;;;;;;;;;;;;;;;5026343;28;19979;-61
2023/07/08 03:32:03;;;;;;;;;;;;;;;;;;5025569;28;19928;-61
2023/07/08 03:34:29;;;;;;;;;;;;;;;;;;5029860;28;19932;-62
2023/07/08 03:36:55;;;;;;;;;;;;;;;;;;5030888;22;19944;-62
2023/07/08 03:39:21;;;;;;;;;;;;;;;;;;5028183;28;19929;-61
2023/07/08 03:41:47;;;;;;;;;;;;;;;;;;5033048;28;19925;-61
2023/07/08 03:44:13;;;;;;;;;;;;;;;;;;5028096;28;19952;-61
2023/07/08 03:46:39;;;;;;;;;;;;;;;;;;5031841;28;19920;-61
2023/07/08 03:49:05;;;;;;;;;;;;;;;;;;5031020;28;19925;-61
2023/07/08 03:51:31;;;;;;;;;;;;;;;;;;5017688;28;20373;-61
2023/07/08 03:53:57;;;;;;;;;;;;;;;;;;5041182;28;19927;-62
2023/07/08 03:56:23;;;;;;;;;;;;;;;;;;5030481;28;20543;-61
2023/07/08 03:58:49;;;;;;;;;;;;;;;;;;5032861;28;19925;-62
2023/07/08 04:01:15;;;;;;;;;;;;;;;;;;5031236;28;19975;-61
2023/07/08 04:03:41;;;;;;;;;;;;;;;;;;5032714;28;19921;-61
2023/07/08 04:06:07;;;;;;;;;;;;;;;;;;5032381;28;20042;-61
2023/07/08 04:08:33;;;;;;;;;;;;;;;;;;5032521;28;19940;-64
2023/07/08 04:10:59;;;;;;;;;;;;;;;;;;5034545;28;20298;-61
2023/07/08 04:13:25;;;;;;;;;;;;;;;;;;5027517;28;19980;-61
2023/07/08 04:15:51;;;;;;;;;;;;;;;;;;5030710;28;19921;-61
2023/07/08 04:18:17;;;;;;;;;;;;;;;;;;5031518;28;19925;-61
2023/07/08 04:20:42;;;;;;;;;;;;;;;;;;5030927;28;19921;-61
2023/07/08 04:23:08;;;;;;;;;;;;;;;;;;5030101;28;19967;-61
2023/07/08 04:25:34;;;;;;;;;;;;;;;;;;5033629;28;19975;-61
2023/07/08 04:28:00;;;;;;;;;;;;;;;;;;5035222;28;20350;-61
2023/07/08 04:30:26;;;;;;;;;;;;;;;;;;5028902;28;19927;-61
2023/07/08 04:32:52;;;;;;;;;;;;;;;;;;5029505;28;19921;-61
2023/07/08 04:35:18;;;;;;;;;;;;;;;;;;5031832;28;19921;-61
2023/07/08 04:37:44;;;;;;;;;;;;;;;;;;5024116;28;20654;-61
2023/07/08 04:40:10;;;;;;;;;;;;;;;;;;5031400;28;19963;-61
2023/07/08 04:42:36;;;;;;;;;;;;;;;;;;5029971;28;20379;-62
2023/07/08 04:45:04;;;;;;;;;;;;;;;;;;5029016;28;19928;-61
2023/07/08 04:47:30;;;;;;;;;;;;;;;;;;5032077;28;19928;-61
2023/07/08 04:49:56;;;;;;;;;;;;;;;;;;5023606;28;19930;-61
2023/07/08 04:52:21;;;;;;;;;;;;;;;;;;5027141;28;19921;-62
2023/07/08 04:54:47;;;;;;;;;;;;;;;;;;5030441;28;19964;-61
2023/07/08 04:57:16;;;;;;;;;;;;;;;;;;5031173;28;19933;-61
2023/07/08 04:59:42;;;;;;;;;;;;;;;;;;5032535;28;19925;-61
2023/07/08 05:02:08;;;;;;;;;;;;;;;;;;5024979;28;20290;-61
2023/07/08 05:04:34;;;;;;;;;;;;;;;;;;5028971;28;19932;-61
2023/07/08 05:07:00;;;;;;;;;;;;;;;;;;5031798;28;19928;-62
2023/07/08 05:09:26;;;;;;;;;;;;;;;;;;5031729;28;19952;-61
2023/07/08 05:11:52;;;;;;;;;;;;;;;;;;5029593;28;20402;-61
2023/07/08 05:14:18;;;;;;;;;;;;;;;;;;5030178;28;19943;-61
2023/07/08 05:16:44;;;;;;;;;;;;;;;;;;5029503;28;19929;-61
2023/07/08 05:19:10;;;;;;;;;;;;;;;;;;5029263;28;19983;-62
2023/07/08 05:21:38;;;;;;;;;;;;;;;;;;5028359;28;20373;-61
2023/07/08 05:24:03;;;;;;;;;;;;;;;;;;5025996;28;19929;-62
2023/07/08 05:26:29;;;;;;;;;;;;;;;;;;5030798;28;19925;-61
2023/07/08 05:28:55;;;;;;;;;;;;;;;;;;5031178;28;19926;-62
2023/07/08 05:31:21;;;;;;;;;;;;;;;;;;5030163;28;20293;-62
2023/07/08 05:33:47;;;;;;;;;;;;;;;;;;5031916;28;19948;-62
2023/07/08 05:36:13;;;;;;;;;;;;;;;;;;5031312;28;20457;-61
2023/07/08 05:38:39;;;;;;;;;;;;;;;;;;5033587;28;19921;-61
2023/07/08 05:41:06;;;;;;;;;;;;;;;;;;5032574;28;19925;-62
2023/07/08 05:43:32;;;;;;;;;;;;;;;;;;5034036;28;19921;-62
2023/07/08 05:45:58;;;;;;;;;;;;;;;;;;5031691;28;19925;-62
2023/07/08 05:48:24;;;;;;;;;;;;;;;;;;5037345;28;20305;-62
2023/07/08 05:50:50;;;;;;;;;;;;;;;;;;5032890;28;20036;-62
2023/07/08 05:53:16;;;;;;;;;;;;;;;;;;5033776;28;19921;-62
2023/07/08 05:55:42;;;;;;;;;;;;;;;;;;5033115;28;20381;-62
2023/07/08 05:58:08;;;;;;;;;;;;;;;;;;5033396;28;19928;-62
2023/07/08 06:00:34;;;;;;;;;;;;;;;;;;5033246;28;19955;-62
2023/07/08 06:03:00;;;;;;;;;;;;;;;;;;5034963;28;20398;-62
2023/07/08 06:05:26;;;;;;;;;;;;;;;;;;5034461;28;20011;-62
2023/07/08 06:07:52;;;;;;;;;;;;;;;;;;5035079;28;20375;-62
2023/07/08 06:10:18;;;;;;;;;;;;;;;;;;5033752;28;19922;-62
2023/07/08 06:12:44;;;;;;;;;;;;;;;;;;5033819;28;19951;-62
2023/07/08 06:15:12;;;;;;;;;;;;;;;;;;5032328;28;20060;-62
2023/07/08 06:17:37;;;;;;;;;;;;;;;;;;5036767;28;19932;-62
2023/07/08 06:20:03;;;;;;;;;;;;;;;;;;5035664;28;19929;-62
2023/07/08 06:22:29;;;;;;;;;;;;;;;;;;5033968;28;19936;-62
2023/07/08 06:24:55;;;;;;;;;;;;;;;;;;5032494;28;20046;-62
2023/07/08 06:27:21;;;;;;;;;;;;;;;;;;5033588;28;20426;-62
2023/07/08 06:29:47;;;;;;;;;;;;;;;;;;5033649;28;20264;-62
2023/07/08 06:32:13;;;;;;;;;;;;;;;;;;5033544;28;19964;-62
2023/07/08 06:34:39;;;;;;;;;;;;;;;;;;5032904;28;19925;-62
2023/07/08 06:37:05;;;;;;;;;;;;;;;;;;5032597;28;20050;-62
2023/07/08 06:39:31;;;;;;;;;;;;;;;;;;5034362;28;19928;-62
2023/07/08 06:41:57;;;;;;;;;;;;;;;;;;5034110;28;19928;-62
2023/07/08 06:44:22;;;;;;;;;;;;;;;;;;5033470;28;19925;-62
2023/07/08 06:46:48;;;;;;;;;;;;;;;;;;5034434;28;19955;-62
2023/07/08 06:49:15;;;;;;;;;;;;;;;;;;5032409;28;19929;-62
2023/07/08 06:51:42;;;;;;;;;;;;;;;;;;5036444;28;19925;-63
2023/07/08 06:54:11;;;;;;;;;;;;;;;;;;5021940;28;20980;-62
2023/07/08 06:56:36;;;;;;;;;;;;;;;;;;5035061;28;19921;-60
2023/07/08 06:59:02;;;;;;;;;;;;;;;;;;5033575;28;19929;-60
2023/07/08 07:01:28;;;;;;;;;;;;;;;;;;5034426;28;20278;-60
2023/07/08 07:03:54;;;;;;;;;;;;;;;;;;5030913;28;19967;-60
2023/07/08 07:06:20;;;;;;;;;;;;;;;;;;5032297;28;19922;-60
2023/07/08 07:08:46;;;;;;;;;;;;;;;;;;5030913;28;19932;-60
2023/07/08 07:11:12;;;;;;;;;;;;;;;;;;5025834;28;20371;-60
2023/07/08 07:13:38;;;;;;;;;;;;;;;;;;5027352;28;20342;-60
2023/07/08 07:16:04;;;;;;;;;;;;;;;;;;5029423;28;19952;-60
2023/07/08 07:18:30;;;;;;;;;;;;;;;;;;5031155;28;19925;-60
2023/07/08 07:20:56;;;;;;;;;;;;;;;;;;5031768;28;20338;-60
2023/07/08 07:23:22;;;;;;;;;;;;;;;;;;5026497;28;19921;-60
2023/07/08 07:25:47;;;;;;;;;;;;;;;;;;5035338;28;20008;-60
2023/07/08 07:28:13;;;;;;;;;;;;;;;;;;5030639;28;20588;-60
2023/07/08 07:30:39;;;;;;;;;;;;;;;;;;5028464;28;19975;-60
2023/07/08 07:33:05;;;;;;;;;;;;;;;;;;5041338;28;19925;-60
2023/07/08 07:35:31;;;;;;;;;;;;;;;;;;5030874;28;19929;-60
2023/07/08 07:37:57;;;;;;;;;;;;;;;;;;5032825;28;19925;-60
2023/07/08 07:40:23;;;;;;;;;;;;;;;;;;5014250;28;19932;-60
2023/07/08 07:42:49;;;;;;;;;;;;;;;;;;5029205;28;20382;-60
2023/07/08 07:45:15;;;;;;;;;;;;;;;;;;5033124;28;19982;-61
2023/07/08 07:47:41;;;;;;;;;;;;;;;;;;5028546;28;19921;-60
2023/07/08 07:50:06;;;;;;;;;;;;;;;;;;5026175;28;20303;-60
2023/07/08 07:52:32;;;;;;;;;;;;;;;;;;5027152;28;20502;-60
2023/07/08 07:54:58;;;;;;;;;;;;;;;;;;5028310;28;19952;-60
2023/07/08 07:57:24;;;;;;;;;;;;;;;;;;5033086;28;19947;-60
2023/07/08 07:59:50;;;;;;;;;;;;;;;;;;5019800;28;20020;-60
2023/07/08 08:02:16;;;;;;;;;;;;;;;;;;5028273;28;20377;-60
2023/07/08 08:04:42;;;;;;;;;;;;;;;;;;5026803;28;20278;-60
2023/07/08 08:07:09;;;;;;;;;;;;;;;;;;5023265;28;19979;-60
2023/07/08 08:09:35;;;;;;;;;;;;;;;;;;5019761;28;19929;-60
2023/07/08 08:12:01;;;;;;;;;;;;;;;;;;5028931;28;19928;-60
2023/07/08 08:14:27;;;;;;;;;;;;;;;;;;5022319;28;20307;-60
2023/07/08 08:16:53;;;;;;;;;;;;;;;;;;5043235;28;19925;-60
2023/07/08 08:19:19;;;;;;;;;;;;;;;;;;5025787;28;20076;-59
2023/07/08 08:21:45;;;;;;;;;;;;;;;;;;5026848;28;19953;-60
2023/07/08 08:24:11;;;;;;;;;;;;;;;;;;5027772;28;19925;-60
2023/07/08 08:26:36;;;;;;;;;;;;;;;;;;5028378;28;19944;-59
2023/07/08 08:29:02;;;;;;;;;;;;;;;;;;5024164;28;19933;-59
2023/07/08 08:31:28;;;;;;;;;;;;;;;;;;5028332;28;19921;-59
2023/07/08 08:33:55;;;;;;;;;;;;;;;;;;5032815;28;20310;-59
2023/07/08 08:36:21;;;;;;;;;;;;;;;;;;5018263;28;20367;-60
2023/07/08 08:38:47;;;;;;;;;;;;;;;;;;5028118;28;19924;-59
2023/07/08 08:41:13;;;;;;;;;;;;;;;;;;5025142;28;19932;-59
2023/07/08 08:43:41;;;;;;;;;;;;;;;;;;5028620;28;20236;-60
2023/07/08 08:46:07;;;;;;;;;;;;;;;;;;5029978;28;19921;-60
2023/07/08 08:48:33;;;;;;;;;;;;;;;;;;5025821;28;20445;-59
2023/07/08 08:51:02;;;;;;;;;;;;;;;;;;5030414;28;19921;-59
2023/07/08 08:53:28;;;;;;;;;;;;;;;;;;5021636;28;20011;-59
2023/07/08 08:55:54;;;;;;;;;;;;;;;;;;5028361;28;20023;-59
2023/07/08 08:58:19;;;;;;;;;;;;;;;;;;5025189;28;19928;-59
2023/07/08 09:00:45;;;;;;;;;;;;;;;;;;5031066;28;19921;-59
2023/07/08 09:03:11;;;;;;;;;;;;;;;;;;5028973;28;20379;-59
2023/07/08 09:05:37;;;;;;;;;;;;;;;;;;5025332;28;20530;-59
2023/07/08 09:08:03;;;;;;;;;;;;;;;;;;5028230;28;20363;-60
2023/07/08 09:10:29;;;;;;;;;;;;;;;;;;5024348;28;19929;-60
2023/07/08 09:12:55;;;;;;;;;;;;;;;;;;5026646;28;19925;-60
2023/07/08 09:15:21;;;;;;;;;;;;;;;;;;5027598;28;20290;-60
2023/07/08 09:17:47;;;;;;;;;;;;;;;;;;5038369;28;19928;-60
2023/07/08 09:20:13;;;;;;;;;;;;;;;;;;5031315;28;19925;-59
2023/07/08 09:22:39;;;;;;;;;;;;;;;;;;5024902;28;20405;-59
2023/07/08 09:25:05;;;;;;;;;;;;;;;;;;5019819;28;20378;-59
2023/07/08 09:27:31;;;;;;;;;;;;;;;;;;5026301;28;19975;-59
2023/07/08 09:29:57;;;;;;;;;;;;;;;;;;5024053;28;19926;-59
2023/07/08 09:32:22;;;;;;;;;;;;;;;;;;5029079;28;19933;-59
2023/07/08 09:34:48;;;;;;;;;;;;;;;;;;5027459;28;20335;-60
2023/07/08 09:37:14;;;;;;;;;;;;;;;;;;5024292;28;19925;-59
2023/07/08 09:39:40;;;;;;;;;;;;;;;;;;5029866;28;19929;-59
2023/07/08 09:42:06;;;;;;;;;;;;;;;;;;5030028;28;19932;-59
2023/07/08 09:44:33;;;;;;;;;;;;;;;;;;5030441;28;19927;-59
2023/07/08 09:46:59;;;;;;;;;;;;;;;;;;5028469;28;19974;-60
2023/07/08 09:49:25;;;;;;;;;;;;;;;;;;5030342;28;19933;-60
2023/07/08 09:51:51;;;;;;;;;;;;;;;;;;5032810;28;20434;-60
2023/07/08 09:54:17;;;;;;;;;;;;;;;;;;5028654;28;19921;-60
2023/07/08 09:56:43;;;;;;;;;;;;;;;;;;5029680;28;20023;-60
2023/07/08 09:59:09;;;;;;;;;;;;;;;;;;5030346;28;20381;-59
2023/07/08 10:01:34;;;;;;;;;;;;;;;;;;5027776;28;19999;-59
2023/07/08 10:04:00;;;;;;;;;;;;;;;;;;5025503;28;19947;-59
2023/07/08 10:06:26;;;;;;;;;;;;;;;;;;5030036;28;19925;-59
2023/07/08 10:08:52;;;;;;;;;;;;;;;;;;5030388;28;20291;-59
2023/07/08 10:11:18;;;;;;;;;;;;;;;;;;5030467;28;19990;-59
2023/07/08 10:13:44;;;;;;;;;;;;;;;;;;5031222;28;19925;-59
2023/07/08 10:16:10;;;;;;;;;;;;;;;;;;5025783;28;19925;-59
2023/07/08 10:18:36;;;;;;;;;;;;;;;;;;5030666;28;20005;-59
2023/07/08 10:21:02;;;;;;;;;;;;;;;;;;5030651;28;19982;-59
2023/07/08 10:23:27;;;;;;;;;;;;;;;;;;5028500;28;19983;-60
2023/07/08 10:25:56;;;;;;;;;;;;;;;;;;5034454;28;21303;-60
2023/07/08 10:28:22;;;;;;;;;;;;;;;;;;5032021;28;20441;-59
2023/07/08 10:30:48;;;;;;;;;;;;;;;;;;5027221;28;20000;-59
2023/07/08 10:33:14;;;;;;;;;;;;;;;;;;5021202;28;20031;-60
2023/07/08 10:35:40;;;;;;;;;;;;;;;;;;5019595;28;20039;-60
2023/07/08 10:38:06;;;;;;;;;;;;;;;;;;5028759;28;19929;-60
2023/07/08 10:40:32;;;;;;;;;;;;;;;;;;5030620;28;19928;-60
2023/07/08 10:42:58;;;;;;;;;;;;;;;;;;5031636;28;19940;-60
2023/07/08 10:45:24;;;;;;;;;;;;;;;;;;5034310;28;20401;-60
2023/07/08 10:47:50;;;;;;;;;;;;;;;;;;5031214;28;19925;-60
2023/07/08 10:50:16;;;;;;;;;;;;;;;;;;5028065;28;20461;-60
2023/07/08 10:52:42;;;;;;;;;;;;;;;;;;5031012;28;19928;-60
2023/07/08 10:55:08;;;;;;;;;;;;;;;;;;5032116;28;20345;-60
2023/07/08 10:57:33;;;;;;;;;;;;;;;;;;5033559;28;20271;-60
2023/07/08 10:59:59;;;;;;;;;;;;;;;;;;5030008;28;19921;-60
2023/07/08 11:02:25;;;;;;;;;;;;;;;;;;5012172;28;19960;-60
2023/07/08 11:04:51;;;;;;;;;;;;;;;;;;5032685;28;19925;-60
2023/07/08 11:07:17;;;;;;;;;;;;;;;;;;5029688;28;20292;-60
2023/07/08 11:09:43;;;;;;;;;;;;;;;;;;5026911;28;19925;-60
2023/07/08 11:12:09;;;;;;;;;;;;;;;;;;5030811;28;19921;-60
2023/07/08 11:14:35;;;;;;;;;;;;;;;;;;5024214;28;19933;-60
2023/07/08 11:17:00;;;;;;;;;;;;;;;;;;5030377;28;19925;-60
2023/07/08 11:19:26;;;;;;;;;;;;;;;;;;5032744;28;19925;-59
2023/07/08 11:21:52;;;;;;;;;;;;;;;;;;5028620;28;19928;-59
2023/07/08 11:24:18;;;;;;;;;;;;;;;;;;5026359;28;20382;-60
2023/07/08 11:26:44;;;;;;;;;;;;;;;;;;5026611;28;20878;-60
2023/07/08 11:29:10;;;;;;;;;;;;;;;;;;5024708;28;19925;-59
2023/07/08 11:31:36;;;;;;;;;;;;;;;;;;5029172;28;19921;-60
2023/07/08 11:34:02;;;;;;;;;;;;;;;;;;5027174;28;19925;-60
2023/07/08 11:36:28;;;;;;;;;;;;;;;;;;5032288;28;19929;-60
2023/07/08 11:38:54;;;;;;;;;;;;;;;;;;5023425;28;19929;-60
2023/07/08 11:41:20;;;;;;;;;;;;;;;;;;5035794;28;19920;-60
2023/07/08 11:43:46;;;;;;;;;;;;;;;;;;5029216;28;20289;-60
2023/07/08 11:46:12;;;;;;;;;;;;;;;;;;5030929;28;19921;-61
2023/07/08 11:48:38;;;;;;;;;;;;;;;;;;5025314;28;19925;-60
2023/07/08 11:51:04;;;;;;;;;;;;;;;;;;5031800;28;19963;-60
2023/07/08 11:53:30;;;;;;;;;;;;;;;;;;5030391;28;20286;-61
2023/07/08 11:55:56;;;;;;;;;;;;;;;;;;5032806;28;19921;-60
2023/07/08 11:58:22;;;;;;;;;;;;;;;;;;5026466;28;19921;-61
2023/07/08 12:00:48;;;;;;;;;;;;;;;;;;5032254;28;20375;-61
2023/07/08 12:03:14;;;;;;;;;;;;;;;;;;5016112;28;19936;-60
2023/07/08 12:05:40;;;;;;;;;;;;;;;;;;5027175;28;19921;-60
2023/07/08 12:08:06;;;;;;;;;;;;;;;;;;5024370;28;19922;-60
2023/07/08 12:10:33;;;;;;;;;;;;;;;;;;5037664;28;19961;-60
2023/07/08 12:12:59;;;;;;;;;;;;;;;;;;5027056;28;20417;-60
2023/07/08 12:15:25;;;;;;;;;;;;;;;;;;5033948;28;19925;-60
2023/07/08 12:17:51;;;;;;;;;;;;;;;;;;5029543;28;19931;-60
2023/07/08 12:20:17;;;;;;;;;;;;;;;;;;5031195;28;20390;-61
2023/07/08 12:22:43;;;;;;;;;;;;;;;;;;5059090;23;20316;-63
2023/07/08 12:25:08;;;;;;;;;;;;;;;;;;5054198;28;20019;-63
2023/07/08 12:27:34;;;;;;;;;;;;;;;;;;5065337;28;19995;-63
2023/07/08 12:30:00;;;;;;;;;;;;;;;;;;5067510;28;20271;-63
2023/07/08 12:32:28;;;;;;;;;;;;;;;;;;5061346;28;19930;-63
2023/07/08 12:34:54;;;;;;;;;;;;;;;;;;5063956;28;19925;-63
2023/07/08 12:37:20;;;;;;;;;;;;;;;;;;5068586;28;19946;-63
2023/07/08 12:39:46;;;;;;;;;;;;;;;;;;5065777;28;20019;-63
2023/07/08 12:42:12;;;;;;;;;;;;;;;;;;5068224;28;19955;-63
2023/07/08 12:44:40;;;;;;;;;;;;;;;;;;5062846;28;19921;-63
2023/07/08 12:47:06;;;;;;;;;;;;;;;;;;5066347;28;19920;-63
2023/07/08 12:49:33;;;;;;;;;;;;;;;;;;5065866;28;19924;-63
2023/07/08 12:51:59;;;;;;;;;;;;;;;;;;5071881;28;19920;-63
2023/07/08 12:54:25;;;;;;;;;;;;;;;;;;5071618;28;19931;-63
2023/07/08 12:56:53;;;;;;;;;;;;;;;;;;5055772;28;19925;-63
2023/07/08 12:59:19;;;;;;;;;;;;;;;;;;5051829;28;19963;-63
2023/07/08 13:01:45;;;;;;;;;;;;;;;;;;5065067;28;19964;-63
2023/07/08 13:04:11;;;;;;;;;;;;;;;;;;5063426;28;19920;-63
2023/07/08 13:06:36;;;;;;;;;;;;;;;;;;5064690;28;19971;-63
2023/07/08 13:09:03;;;;;;;;;;;;;;;;;;5069436;28;19948;-63
2023/07/08 13:11:29;;;;;;;;;;;;;;;;;;5070629;28;19929;-63
2023/07/08 13:13:55;;;;;;;;;;;;;;;;;;5066491;28;19947;-63
2023/07/08 13:16:21;;;;;;;;;;;;;;;;;;5067265;28;19925;-63
2023/07/08 13:18:47;;;;;;;;;;;;;;;;;;5070057;28;20054;-63
2023/07/08 13:21:13;;;;;;;;;;;;;;;;;;5067487;28;19920;-63
2023/07/08 13:23:39;;;;;;;;;;;;;;;;;;5068653;28;19927;-63
2023/07/08 13:26:05;;;;;;;;;;;;;;;;;;5064282;28;19937;-63
2023/07/08 13:28:30;;;;;;;;;;;;;;;;;;5058008;28;20245;-64
2023/07/08 13:30:56;;;;;;;;;;;;;;;;;;5062885;28;19935;-64
2023/07/08 13:33:22;;;;;;;;;;;;;;;;;;5066936;28;19956;-64
2023/07/08 13:35:48;;;;;;;;;;;;;;;;;;5057057;28;19924;-64
2023/07/08 13:38:15;;;;;;;;;;;;;;;;;;5068950;28;19924;-63
2023/07/08 13:40:41;;;;;;;;;;;;;;;;;;5064365;28;20320;-64
2023/07/08 13:43:06;;;;;;;;;;;;;;;;;;5066438;28;20016;-64
2023/07/08 13:45:32;;;;;;;;;;;;;;;;;;5067940;28;19931;-64
2023/07/08 13:47:59;;;;;;;;;;;;;;;;;;5059452;28;20320;-64
2023/07/08 13:50:24;;;;;;;;;;;;;;;;;;5066051;28;20007;-64
2023/07/08 13:52:50;;;;;;;;;;;;;;;;;;5062020;28;20464;-63
2023/07/08 13:55:16;;;;;;;;;;;;;;;;;;5068335;28;19925;-64
2023/07/08 13:57:42;;;;;;;;;;;;;;;;;;5072933;28;20270;-64
2023/07/08 14:00:08;;;;;;;;;;;;;;;;;;5071538;28;19921;-64
2023/07/08 14:02:34;;;;;;;;;;;;;;;;;;5068285;28;19981;-64
2023/07/08 14:05:00;;;;;;;;;;;;;;;;;;5071903;28;20409;-64
2023/07/08 14:07:26;;;;;;;;;;;;;;;;;;5071328;28;19920;-64
2023/07/08 14:09:52;;;;;;;;;;;;;;;;;;5070175;28;19925;-64
2023/07/08 14:12:18;;;;;;;;;;;;;;;;;;5070158;28;19925;-64
2023/07/08 14:14:44;;;;;;;;;;;;;;;;;;5056116;28;19935;-64
2023/07/08 14:17:10;;;;;;;;;;;;;;;;;;5064124;28;19921;-64
2023/07/08 14:19:36;;;;;;;;;;;;;;;;;;5069128;28;19928;-64
2023/07/08 14:22:01;;;;;;;;;;;;;;;;;;5071438;28;19928;-64
2023/07/08 14:24:27;;;;;;;;;;;;;;;;;;5071138;28;19963;-63
2023/07/08 14:26:53;;;;;;;;;;;;;;;;;;5064833;28;20353;-63
2023/07/08 14:29:19;;;;;;;;;;;;;;;;;;5064731;28;19931;-63
2023/07/08 14:31:45;;;;;;;;;;;;;;;;;;5074305;28;19932;-63
2023/07/08 14:34:11;;;;;;;;;;;;;;;;;;5074247;28;19924;-63
2023/07/08 14:36:37;;;;;;;;;;;;;;;;;;5072955;28;19920;-63
2023/07/08 14:39:03;;;;;;;;;;;;;;;;;;5061645;28;20510;-63
2023/07/08 14:41:29;;;;;;;;;;;;;;;;;;5067612;28;19932;-63
2023/07/08 14:43:55;;;;;;;;;;;;;;;;;;5073891;28;19925;-63
2023/07/08 14:46:20;;;;;;;;;;;;;;;;;;5071917;28;19927;-62
2023/07/08 14:48:46;;;;;;;;;;;;;;;;;;5072251;28;19982;-63
2023/07/08 14:51:12;;;;;;;;;;;;;;;;;;5065761;28;19935;-63
2023/07/08 14:53:38;;;;;;;;;;;;;;;;;;5070316;28;19924;-63
2023/07/08 14:56:04;;;;;;;;;;;;;;;;;;5073335;28;20281;-63
2023/07/08 14:58:30;;;;;;;;;;;;;;;;;;5073099;28;19920;-63
2023/07/08 15:00:59;;;;;;;;;;;;;;;;;;5071653;28;19935;-63
2023/07/08 15:03:25;;;;;;;;;;;;;;;;;;5071289;28;19924;-63
2023/07/08 15:05:51;;;;;;;;;;;;;;;;;;5072277;28;19927;-63
2023/07/08 15:08:17;;;;;;;;;;;;;;;;;;5072541;28;20397;-63
2023/07/08 15:10:43;;;;;;;;;;;;;;;;;;5072943;28;19924;-63
2023/07/08 15:13:09;;;;;;;;;;;;;;;;;;5071531;28;19927;-63
2023/07/08 15:15:36;;;;;;;;;;;;;;;;;;5072317;28;20355;-63
2023/07/08 15:18:04;;;;;;;;;;;;;;;;;;5071672;28;19924;-62
2023/07/08 15:20:30;;;;;;;;;;;;;;;;;;5072714;28;20281;-63
2023/07/08 15:22:56;;;;;;;;;;;;;;;;;;5072384;28;19925;-63
2023/07/08 15:25:22;;;;;;;;;;;;;;;;;;5072552;28;19924;-63
2023/07/08 15:27:48;;;;;;;;;;;;;;;;;;5070992;28;20327;-63
2023/07/08 15:30:14;;;;;;;;;;;;;;;;;;5059224;28;19985;-63
2023/07/08 15:32:40;;;;;;;;;;;;;;;;;;5052335;28;19921;-63
2023/07/08 15:35:06;;;;;;;;;;;;;;;;;;5052565;28;19978;-63
2023/07/08 15:37:32;;;;;;;;;;;;;;;;;;5051383;28;19920;-63
2023/07/08 15:39:58;;;;;;;;;;;;;;;;;;5051672;28;20416;-63
2023/07/08 15:42:24;;;;;;;;;;;;;;;;;;5065452;28;19921;-63
2023/07/08 15:44:52;;;;;;;;;;;;;;;;;;5066980;28;20279;-63
2023/07/08 15:47:18;;;;;;;;;;;;;;;;;;5066470;28;19921;-63
2023/07/08 15:49:44;;;;;;;;;;;;;;;;;;5072661;28;19929;-63
2023/07/08 15:52:10;;;;;;;;;;;;;;;;;;5071539;28;19970;-63
2023/07/08 15:54:35;;;;;;;;;;;;;;;;;;5072556;28;19925;-63
2023/07/08 15:57:06;;;;;;;;;;;;;;;;;;5071929;28;20524;-63
2023/07/08 15:59:32;;;;;;;;;;;;;;;;;;5070440;28;19927;-63
2023/07/08 16:01:57;;;;;;;;;;;;;;;;;;5052458;28;19921;-63
2023/07/08 16:04:24;;;;;;;;;;;;;;;;;;5051098;28;19931;-63
2023/07/08 16:06:50;;;;;;;;;;;;;;;;;;5062807;28;19920;-62
2023/07/08 16:09:16;;;;;;;;;;;;;;;;;;5072573;28;19935;-62
2023/07/08 16:11:41;;;;;;;;;;;;;;;;;;5071366;28;19966;-63
2023/07/08 16:14:07;;;;;;;;;;;;;;;;;;5072528;28;19924;-63
2023/07/08 16:16:33;;;;;;;;;;;;;;;;;;5072014;28;19951;-63
2023/07/08 16:18:59;;;;;;;;;;;;;;;;;;5070245;28;20011;-62
2023/07/08 16:21:25;;;;;;;;;;;;;;;;;;5066545;28;19935;-62
2023/07/08 16:23:51;;;;;;;;;;;;;;;;;;5052423;28;19925;-63
2023/07/08 16:26:17;;;;;;;;;;;;;;;;;;5052481;28;20289;-63
2023/07/08 16:28:43;;;;;;;;;;;;;;;;;;5050788;28;20016;-62
2023/07/08 16:31:09;;;;;;;;;;;;;;;;;;5051572;28;19931;-63
2023/07/08 16:33:34;;;;;;;;;;;;;;;;;;5066385;28;19948;-63
2023/07/08 16:36:00;;;;;;;;;;;;;;;;;;5072062;28;19920;-63